createdAt,value
2022-10-09T00:01:38.649Z,84.65
2022-10-09T00:04:01.234Z,84.16
2022-10-09T00:06:32.387Z,84.26
2022-10-09T00:08:56.123Z,84.15
2022-10-09T00:11:22.274Z,83.89
2022-10-09T00:13:45.659Z,83.78
2022-10-09T00:16:10.822Z,83.59
2022-10-09T00:18:33.826Z,83.80
2022-10-09T00:20:56.360Z,83.75
2022-10-09T00:23:19.173Z,83.80
2022-10-09T00:25:53.570Z,83.42
2022-10-09T00:28:16.262Z,83.37
2022-10-09T00:30:39.458Z,83.20
2022-10-09T00:33:02.079Z,83.14
2022-10-09T00:35:24.677Z,83.01
2022-10-09T00:37:48.724Z,83.14
2022-10-09T00:40:11.630Z,83.53
2022-10-09T00:42:34.264Z,83.16
2022-10-09T00:45:00.271Z,82.81
2022-10-09T00:47:34.806Z,82.82
2022-10-09T00:50:12.075Z,82.77
2022-10-09T00:52:34.665Z,82.51
2022-10-09T00:54:59.226Z,82.68
2022-10-09T00:57:21.934Z,83.14
2022-10-09T00:59:45.192Z,83.42
2022-10-09T01:02:07.950Z,83.33
2022-10-09T01:04:31.083Z,83.15
2022-10-09T01:07:18.230Z,83.34
2022-10-09T01:10:05.169Z,83.62
2022-10-09T01:12:58.580Z,83.75
2022-10-09T01:15:53.676Z,83.83
2022-10-09T01:18:29.046Z,83.77
2022-10-09T01:20:56.686Z,84.36
2022-10-09T01:23:35.817Z,84.52
2022-10-09T01:26:13.298Z,84.52
2022-10-09T01:28:38.477Z,84.24
2022-10-09T01:31:04.606Z,84.01
2022-10-09T01:33:30.516Z,84.35
2022-10-09T01:35:53.721Z,84.86
2022-10-09T01:38:17.907Z,85.21
2022-10-09T01:40:40.475Z,84.81
2022-10-09T01:43:03.187Z,84.57
2022-10-09T01:45:25.831Z,84.85
2022-10-09T01:47:48.451Z,85.53
2022-10-09T01:50:27.421Z,85.43
2022-10-09T01:52:53.801Z,86.00
2022-10-09T01:55:34.329Z,85.73
2022-10-09T01:58:00.058Z,86.41
2022-10-09T02:00:23.072Z,86.35
2022-10-09T02:02:46.735Z,85.98
2022-10-09T02:05:22.697Z,86.21
2022-10-09T02:07:46.012Z,86.18
2022-10-09T02:10:10.144Z,86.28
2022-10-09T02:12:38.657Z,86.21
2022-10-09T02:15:01.121Z,86.35
2022-10-09T02:17:29.332Z,86.56
2022-10-09T02:19:56.992Z,86.94
2022-10-09T02:22:25.080Z,86.63
2022-10-09T02:24:47.956Z,86.68
2022-10-09T02:27:12.466Z,87.54
2022-10-09T02:29:35.596Z,87.46
2022-10-09T02:31:58.205Z,87.37
2022-10-09T02:34:21.303Z,87.28
2022-10-09T02:36:48.626Z,87.05
2022-10-09T02:39:11.251Z,87.13
2022-10-09T02:41:34.112Z,87.36
2022-10-09T02:43:56.733Z,87.27
2022-10-09T02:46:19.676Z,87.84
2022-10-09T02:48:42.369Z,88.15
2022-10-09T02:51:05.040Z,88.03
2022-10-09T02:53:27.925Z,88.02
2022-10-09T02:55:50.624Z,87.95
2022-10-09T02:58:14.981Z,88.09
2022-10-09T03:00:38.374Z,88.09
2022-10-09T03:03:00.931Z,88.19
2022-10-09T03:05:23.516Z,88.25
2022-10-09T03:07:51.306Z,88.12
2022-10-09T03:10:14.076Z,88.19
2022-10-09T03:12:36.511Z,88.06
2022-10-09T03:14:59.036Z,88.09
2022-10-09T03:17:21.576Z,88.13
2022-10-09T03:19:45.905Z,88.11
2022-10-09T03:22:08.404Z,88.12
2022-10-09T03:24:31.029Z,88.27
2022-10-09T03:26:53.626Z,88.31
2022-10-09T03:29:16.058Z,88.59
2022-10-09T03:31:54.085Z,88.79
2022-10-09T03:34:16.877Z,88.92
2022-10-09T03:36:40.093Z,89.34
2022-10-09T03:39:02.607Z,89.31
2022-10-09T03:41:25.119Z,89.19
2022-10-09T03:43:47.736Z,89.32
2022-10-09T03:46:11.285Z,89.28
2022-10-09T03:48:34.821Z,89.53
2022-10-09T03:50:57.337Z,89.87
2022-10-09T03:53:19.878Z,90.06
2022-10-09T03:55:43.161Z,89.81
2022-10-09T03:58:06.185Z,89.82
2022-10-09T04:00:28.861Z,89.93
2022-10-09T04:02:51.829Z,89.90
2022-10-09T04:05:14.808Z,90.10
2022-10-09T04:07:37.384Z,90.36
2022-10-09T04:10:01.413Z,90.54
2022-10-09T04:12:24.280Z,90.50
2022-10-09T04:14:46.870Z,90.25
2022-10-09T04:17:09.659Z,90.31
2022-10-09T04:19:34.858Z,90.30
2022-10-09T04:21:57.631Z,90.37
2022-10-09T04:24:20.092Z,90.14
2022-10-09T04:26:42.677Z,90.16
2022-10-09T04:29:05.989Z,90.12
2022-10-09T04:31:28.624Z,90.09
2022-10-09T04:33:51.195Z,90.05
2022-10-09T04:36:13.793Z,89.88
2022-10-09T04:38:36.382Z,89.89
2022-10-09T04:41:05.392Z,90.00
2022-10-09T04:43:28.865Z,90.06
2022-10-09T04:45:51.444Z,90.04
2022-10-09T04:48:14.039Z,89.95
2022-10-09T04:50:39.095Z,89.76
2022-10-09T04:53:01.613Z,89.74
2022-10-09T04:55:24.132Z,89.75
2022-10-09T04:57:46.993Z,89.56
2022-10-09T05:00:10.275Z,89.66
2022-10-09T05:02:32.926Z,89.84
2022-10-09T05:04:57.368Z,89.98
2022-10-09T05:07:19.980Z,89.96
2022-10-09T05:09:42.679Z,89.60
2022-10-09T05:12:05.293Z,89.46
2022-10-09T05:14:27.799Z,89.20
2022-10-09T05:17:13.068Z,89.17
2022-10-09T05:19:36.713Z,88.63
2022-10-09T05:22:00.937Z,88.30
2022-10-09T05:24:23.429Z,88.05
2022-10-09T05:26:45.960Z,87.77
2022-10-09T05:29:08.667Z,87.78
2022-10-09T05:31:31.902Z,87.95
2022-10-09T05:33:56.285Z,87.86
2022-10-09T05:36:19.714Z,87.54
2022-10-09T05:38:42.513Z,87.17
2022-10-09T05:41:07.693Z,87.02
2022-10-09T05:43:33.789Z,86.63
2022-10-09T05:45:56.394Z,86.59
2022-10-09T05:48:19.987Z,86.41
2022-10-09T05:50:42.656Z,86.35
2022-10-09T05:53:05.205Z,86.25
2022-10-09T05:55:28.251Z,86.08
2022-10-09T05:57:53.011Z,85.69
2022-10-09T06:00:15.535Z,85.64
2022-10-09T06:02:38.100Z,85.69
2022-10-09T06:05:00.708Z,85.69
2022-10-09T06:07:23.223Z,85.64
2022-10-09T06:09:46.344Z,85.96
2022-10-09T06:12:09.052Z,85.94
2022-10-09T06:14:31.774Z,85.98
2022-10-09T06:16:54.382Z,86.08
2022-10-09T06:19:19.361Z,85.97
2022-10-09T06:21:42.667Z,86.12
2022-10-09T06:24:06.786Z,86.13
2022-10-09T06:26:30.585Z,86.13
2022-10-09T06:28:53.223Z,86.30
2022-10-09T06:31:21.126Z,86.46
2022-10-09T06:33:45.105Z,86.33
2022-10-09T06:36:15.963Z,86.20
2022-10-09T06:38:39.356Z,86.14
2022-10-09T06:41:06.769Z,85.87
2022-10-09T06:43:29.604Z,85.82
2022-10-09T06:45:52.089Z,85.45
2022-10-09T06:48:14.692Z,84.48
2022-10-09T06:50:37.549Z,83.74
2022-10-09T06:53:00.247Z,83.39
2022-10-09T06:55:27.864Z,82.76
2022-10-09T06:57:51.121Z,82.51
2022-10-09T07:00:14.332Z,82.34
2022-10-09T07:02:41.802Z,82.02
2022-10-09T07:05:06.924Z,82.18
2022-10-09T07:07:29.466Z,82.13
2022-10-09T07:09:54.686Z,81.80
2022-10-09T07:12:17.396Z,82.06
2022-10-09T07:14:39.855Z,81.70
2022-10-09T07:17:43.424Z,82.00
2022-10-09T07:20:06.757Z,82.21
2022-10-09T07:22:29.955Z,82.12
2022-10-09T07:24:52.899Z,81.30
2022-10-09T07:27:15.534Z,79.08
2022-10-09T07:29:38.591Z,77.17
2022-10-09T07:32:01.158Z,75.81
2022-10-09T07:34:23.838Z,73.50
2022-10-09T07:36:46.413Z,71.34
2022-10-09T07:39:09.104Z,69.06
2022-10-09T07:41:31.616Z,68.47
2022-10-09T07:43:54.507Z,68.30
2022-10-09T07:46:19.719Z,66.72
2022-10-09T07:48:43.111Z,65.09
2022-10-09T07:51:16.661Z,65.15
2022-10-09T07:53:39.376Z,66.21
2022-10-09T07:56:01.833Z,68.24
2022-10-09T07:58:25.448Z,68.58
2022-10-09T08:00:47.893Z,69.33
2022-10-09T08:03:10.742Z,70.53
2022-10-09T08:05:33.333Z,71.41
2022-10-09T08:07:56.114Z,71.58
2022-10-09T08:10:18.660Z,71.27
2022-10-09T08:12:41.197Z,70.58
2022-10-09T08:15:04.024Z,72.21
2022-10-09T08:17:26.615Z,71.86
2022-10-09T08:19:49.180Z,71.72
2022-10-09T08:22:14.298Z,71.54
2022-10-09T08:24:36.806Z,71.45
2022-10-09T08:26:59.752Z,71.27
2022-10-09T08:29:22.236Z,71.54
2022-10-09T08:31:44.794Z,71.25
2022-10-09T08:34:07.435Z,70.80
2022-10-09T08:36:30.869Z,70.76
2022-10-09T08:38:53.507Z,70.87
2022-10-09T08:41:18.829Z,70.37
2022-10-09T08:43:47.034Z,69.79
2022-10-09T08:46:41.535Z,69.90
2022-10-09T08:49:05.277Z,68.52
2022-10-09T08:51:33.181Z,68.42
2022-10-09T08:54:04.477Z,68.47
2022-10-09T08:56:27.702Z,68.09
2022-10-09T08:58:50.292Z,67.60
2022-10-09T09:01:16.886Z,67.30
2022-10-09T09:03:57.627Z,67.12
2022-10-09T09:07:04.471Z,66.75
2022-10-09T09:09:45.500Z,66.03
2022-10-09T09:12:48.984Z,65.75
2022-10-09T09:15:38.331Z,65.44
2022-10-09T09:18:25.556Z,65.89
2022-10-09T09:20:48.209Z,65.19
2022-10-09T09:23:15.336Z,64.86
2022-10-09T09:25:42.050Z,65.08
2022-10-09T09:28:20.575Z,64.70
2022-10-09T09:30:51.909Z,63.78
2022-10-09T09:33:18.928Z,63.69
2022-10-09T09:35:59.633Z,62.71
2022-10-09T09:38:22.284Z,63.56
2022-10-09T09:40:47.188Z,61.33
2022-10-09T09:43:22.500Z,61.64
2022-10-09T09:45:46.621Z,61.74
2022-10-09T09:48:37.210Z,61.19
2022-10-09T09:51:23.599Z,59.12
2022-10-09T09:53:50.058Z,58.72
2022-10-09T09:56:12.628Z,58.46
2022-10-09T09:58:50.007Z,58.10
2022-10-09T10:01:25.352Z,58.49
2022-10-09T10:03:50.760Z,57.54
2022-10-09T10:06:29.079Z,57.03
2022-10-09T10:09:24.622Z,56.98
2022-10-09T10:12:00.529Z,56.10
2022-10-09T10:14:23.583Z,55.29
2022-10-09T10:16:49.896Z,54.88
2022-10-09T10:19:25.077Z,55.15
2022-10-09T10:21:54.852Z,54.87
2022-10-09T10:24:22.946Z,54.77
2022-10-09T10:26:53.027Z,54.25
2022-10-09T10:29:17.563Z,54.67
2022-10-09T10:31:58.439Z,54.72
2022-10-09T10:34:27.799Z,54.67
2022-10-09T10:37:01.112Z,54.92
2022-10-09T10:39:39.858Z,56.02
2022-10-09T10:42:06.913Z,54.32
2022-10-09T10:44:37.260Z,54.74
2022-10-09T10:47:06.651Z,53.36
2022-10-09T10:49:33.486Z,54.09
2022-10-09T10:52:06.620Z,54.35
2022-10-09T10:54:38.087Z,53.82
2022-10-09T10:57:29.686Z,53.44
2022-10-09T11:00:11.675Z,52.11
2022-10-09T11:02:49.500Z,51.61
2022-10-09T11:05:27.029Z,51.76
2022-10-09T11:08:13.935Z,52.68
2022-10-09T11:10:54.193Z,49.88
2022-10-09T11:13:25.816Z,51.31
2022-10-09T11:15:54.021Z,51.80
2022-10-09T11:18:33.077Z,51.62
2022-10-09T11:21:04.329Z,52.54
2022-10-09T11:23:48.013Z,51.42
2022-10-09T11:26:22.896Z,53.53
2022-10-09T11:28:50.619Z,52.08
2022-10-09T11:31:22.158Z,53.65
2022-10-09T11:33:48.727Z,52.68
2022-10-09T11:36:18.555Z,53.13
2022-10-09T11:38:46.279Z,52.58
2022-10-09T11:41:09.511Z,52.80
2022-10-09T11:43:38.315Z,52.12
2022-10-09T11:46:29.351Z,51.22
2022-10-09T11:49:21.543Z,50.61
2022-10-09T11:52:08.271Z,49.01
2022-10-09T11:54:31.175Z,49.53
2022-10-09T11:56:59.793Z,49.08
2022-10-09T11:59:28.780Z,48.39
2022-10-09T12:01:51.682Z,49.49
2022-10-09T12:04:14.193Z,50.63
2022-10-09T12:06:53.115Z,49.93
2022-10-09T12:09:48.414Z,49.42
2022-10-09T12:12:16.829Z,49.85
2022-10-09T12:14:39.435Z,51.14
2022-10-09T12:17:14.200Z,51.62
2022-10-09T12:19:40.106Z,53.56
2022-10-09T12:22:07.664Z,54.17
2022-10-09T12:24:39.212Z,54.20
2022-10-09T12:27:03.341Z,54.19
2022-10-09T12:29:34.854Z,52.08
2022-10-09T12:32:05.879Z,51.90
2022-10-09T12:34:52.096Z,52.85
2022-10-09T12:37:30.687Z,53.66
2022-10-09T12:39:53.287Z,52.92
2022-10-09T12:42:25.200Z,53.38
2022-10-09T12:44:50.637Z,50.11
2022-10-09T12:47:21.887Z,50.57
2022-10-09T12:49:55.584Z,47.69
2022-10-09T12:52:18.374Z,48.52
2022-10-09T12:54:44.312Z,48.65
2022-10-09T12:57:14.120Z,48.86
2022-10-09T12:59:37.567Z,49.54
2022-10-09T13:02:00.554Z,50.43
2022-10-09T13:04:27.767Z,53.29
2022-10-09T13:06:52.123Z,53.18
2022-10-09T13:09:25.096Z,54.29
2022-10-09T13:12:00.109Z,54.82
2022-10-09T13:14:35.634Z,56.43
2022-10-09T13:16:58.278Z,55.97
2022-10-09T13:19:27.327Z,56.66
2022-10-09T13:22:26.809Z,56.65
2022-10-09T13:24:55.553Z,55.98
2022-10-09T13:27:19.668Z,55.55
2022-10-09T13:29:43.377Z,56.42
2022-10-09T13:32:09.028Z,56.53
2022-10-09T13:34:31.680Z,57.26
2022-10-09T13:36:54.288Z,57.33
2022-10-09T13:39:17.190Z,58.62
2022-10-09T13:41:39.822Z,57.48
2022-10-09T13:44:02.478Z,57.36
2022-10-09T13:46:25.363Z,56.51
2022-10-09T13:48:48.001Z,55.40
2022-10-09T13:51:10.979Z,54.54
2022-10-09T13:53:34.117Z,55.93
2022-10-09T13:56:00.762Z,54.27
2022-10-09T13:58:23.921Z,53.51
2022-10-09T14:00:46.834Z,53.09
2022-10-09T14:03:09.841Z,52.65
2022-10-09T14:05:32.329Z,52.40
2022-10-09T14:07:55.504Z,53.58
2022-10-09T14:10:23.004Z,53.59
2022-10-09T14:12:46.798Z,55.67
2022-10-09T14:15:09.869Z,55.40
2022-10-09T14:17:32.714Z,55.89
2022-10-09T14:19:55.524Z,55.38
2022-10-09T14:22:18.148Z,55.96
2022-10-09T14:24:41.067Z,56.89
2022-10-09T14:27:03.686Z,57.25
2022-10-09T14:29:26.254Z,57.92
2022-10-09T14:31:51.828Z,58.62
2022-10-09T14:34:14.882Z,59.00
2022-10-09T14:36:37.488Z,59.94
2022-10-09T14:39:03.727Z,59.89
2022-10-09T14:41:26.499Z,59.90
2022-10-09T14:43:57.006Z,60.03
2022-10-09T14:46:19.634Z,60.60
2022-10-09T14:48:42.677Z,61.26
2022-10-09T14:51:07.813Z,61.75
2022-10-09T14:53:30.272Z,61.21
2022-10-09T14:55:52.897Z,61.44
2022-10-09T14:58:15.346Z,61.50
2022-10-09T15:00:37.987Z,62.10
2022-10-09T15:03:00.532Z,61.67
2022-10-09T15:05:23.264Z,61.74
2022-10-09T15:07:45.864Z,61.70
2022-10-09T15:10:08.797Z,62.03
2022-10-09T15:12:31.357Z,62.82
2022-10-09T15:14:54.106Z,63.47
2022-10-09T15:17:16.622Z,63.42
2022-10-09T15:19:40.532Z,64.07
2022-10-09T15:22:03.690Z,64.23
2022-10-09T15:24:26.207Z,64.51
2022-10-09T15:26:48.674Z,64.39
2022-10-09T15:29:12.151Z,63.63
2022-10-09T15:31:37.629Z,63.71
2022-10-09T15:34:03.472Z,64.54
2022-10-09T15:36:26.244Z,65.96
2022-10-09T15:38:50.214Z,65.03
2022-10-09T15:41:25.060Z,65.35
2022-10-09T15:43:48.408Z,65.49
2022-10-09T15:46:10.954Z,66.18
2022-10-09T15:48:33.633Z,66.53
2022-10-09T15:50:56.499Z,67.41
2022-10-09T15:53:22.962Z,68.85
2022-10-09T15:55:47.347Z,69.66
2022-10-09T15:58:10.687Z,69.47
2022-10-09T16:00:38.518Z,69.96
2022-10-09T16:03:01.407Z,70.85
2022-10-09T16:05:23.956Z,72.07
2022-10-09T16:07:47.365Z,72.30
2022-10-09T16:10:10.741Z,72.51
2022-10-09T16:12:33.584Z,72.33
2022-10-09T16:14:56.150Z,72.60
2022-10-09T16:17:18.731Z,72.98
2022-10-09T16:19:41.640Z,73.58
2022-10-09T16:22:05.164Z,74.51
2022-10-09T16:24:27.617Z,74.75
2022-10-09T16:26:51.073Z,75.57
2022-10-09T16:29:13.569Z,74.98
2022-10-09T16:31:36.952Z,75.25
2022-10-09T16:33:59.455Z,75.72
2022-10-09T16:36:22.415Z,76.00
2022-10-09T16:38:45.441Z,73.68
2022-10-09T16:41:14.751Z,72.81
2022-10-09T16:43:38.527Z,74.40
2022-10-09T16:46:32.276Z,74.92
2022-10-09T16:48:57.415Z,73.42
2022-10-09T16:51:23.917Z,73.26
2022-10-09T16:53:53.039Z,72.90
2022-10-09T16:56:19.895Z,72.31
2022-10-09T16:58:43.324Z,71.96
2022-10-09T17:01:09.830Z,72.64
2022-10-09T17:03:33.016Z,72.83
2022-10-09T17:05:55.705Z,72.93
2022-10-09T17:08:18.241Z,73.33
2022-10-09T17:10:42.243Z,73.40
2022-10-09T17:13:04.819Z,73.75
2022-10-09T17:15:27.726Z,74.58
2022-10-09T17:17:50.777Z,74.90
2022-10-09T17:20:13.994Z,76.07
2022-10-09T17:22:36.770Z,75.78
2022-10-09T17:24:59.438Z,76.30
2022-10-09T17:27:22.143Z,77.00
2022-10-09T17:29:44.679Z,77.67
2022-10-09T17:32:09.265Z,77.60
2022-10-09T17:34:31.831Z,77.69
2022-10-09T17:36:54.568Z,78.01
2022-10-09T17:39:18.332Z,78.27
2022-10-09T17:41:41.316Z,78.36
2022-10-09T17:44:04.675Z,78.12
2022-10-09T17:46:28.870Z,78.41
2022-10-09T17:48:56.135Z,78.82
2022-10-09T17:51:32.539Z,77.52
2022-10-09T17:56:26.097Z,78.15
2022-10-09T17:59:09.555Z,77.53
2022-10-09T18:01:32.533Z,76.84
2022-10-09T18:03:55.192Z,76.48
2022-10-09T18:06:19.924Z,76.51
2022-10-09T18:08:43.121Z,76.44
2022-10-09T18:11:09.039Z,76.58
2022-10-09T18:13:32.135Z,76.57
2022-10-09T18:15:54.771Z,76.63
2022-10-09T18:18:18.936Z,76.20
2022-10-09T18:20:41.780Z,76.01
2022-10-09T18:23:05.299Z,75.55
2022-10-09T18:25:27.804Z,75.52
2022-10-09T18:27:50.797Z,75.97
2022-10-09T18:30:14.012Z,75.54
2022-10-09T18:32:36.845Z,76.10
2022-10-09T18:34:59.458Z,75.88
2022-10-09T18:37:22.178Z,75.86
2022-10-09T18:39:45.228Z,76.49
2022-10-09T18:42:08.135Z,76.93
2022-10-09T18:44:33.978Z,76.89
2022-10-09T18:46:59.045Z,77.05
2022-10-09T18:49:29.360Z,77.64
2022-10-09T18:51:52.437Z,77.60
2022-10-09T18:54:18.296Z,77.56
2022-10-09T18:56:41.532Z,78.06
2022-10-09T18:59:08.736Z,78.46
2022-10-09T19:01:31.388Z,78.77
2022-10-09T19:03:54.079Z,78.57
2022-10-09T19:06:17.634Z,78.56
2022-10-09T19:08:40.221Z,78.56
2022-10-09T19:11:03.586Z,78.66
2022-10-09T19:13:26.834Z,78.99
2022-10-09T19:15:58.700Z,79.25
2022-10-09T19:18:22.292Z,79.56
2022-10-09T19:20:44.972Z,79.39
2022-10-09T19:23:08.522Z,79.65
2022-10-09T19:25:31.906Z,79.30
2022-10-09T19:27:54.800Z,79.63
2022-10-09T19:30:17.494Z,79.93
2022-10-09T19:32:40.015Z,79.60
2022-10-09T19:35:02.849Z,78.74
2022-10-09T19:37:28.918Z,78.60
2022-10-09T19:39:52.736Z,77.19
2022-10-09T19:42:16.627Z,77.09
2022-10-09T19:44:42.138Z,76.44
2022-10-09T19:47:05.115Z,74.53
2022-10-09T19:49:31.655Z,75.66
2022-10-09T19:51:54.690Z,74.63
2022-10-09T19:54:18.176Z,74.55
2022-10-09T19:56:41.069Z,75.18
2022-10-09T19:59:07.969Z,75.14
2022-10-09T20:01:32.832Z,75.81
2022-10-09T20:03:57.145Z,75.32
2022-10-09T20:06:19.682Z,75.84
2022-10-09T20:08:43.865Z,76.82
2022-10-09T20:11:07.499Z,76.72
2022-10-09T20:13:34.838Z,76.97
2022-10-09T20:15:59.915Z,77.54
2022-10-09T20:18:23.706Z,77.28
2022-10-09T20:20:48.107Z,77.35
2022-10-09T20:23:10.637Z,77.76
2022-10-09T20:25:34.041Z,77.97
2022-10-09T20:27:56.563Z,78.33
2022-10-09T20:30:19.112Z,78.62
2022-10-09T20:32:42.279Z,78.39
2022-10-09T20:35:05.400Z,78.19
2022-10-09T20:37:28.309Z,77.95
2022-10-09T20:39:51.133Z,77.68
2022-10-09T20:42:14.122Z,77.97
2022-10-09T20:44:36.881Z,77.93
2022-10-09T20:46:59.682Z,77.74
2022-10-09T20:49:23.379Z,77.37
2022-10-09T20:51:45.909Z,77.45
2022-10-09T20:54:13.800Z,76.96
2022-10-09T20:56:36.775Z,77.46
2022-10-09T20:59:00.793Z,77.56
2022-10-09T21:01:24.597Z,77.69
2022-10-09T21:03:47.695Z,77.73
2022-10-09T21:06:12.996Z,77.62
2022-10-09T21:08:36.107Z,77.24
2022-10-09T21:10:58.890Z,77.50
2022-10-09T21:13:21.513Z,77.26
2022-10-09T21:15:46.443Z,77.37
2022-10-09T21:18:09.148Z,77.38
2022-10-09T21:20:31.583Z,77.70
2022-10-09T21:22:54.105Z,78.21
2022-10-09T21:25:16.621Z,78.83
2022-10-09T21:27:39.199Z,78.01
2022-10-09T21:30:01.844Z,78.27
2022-10-09T21:32:24.847Z,78.95
2022-10-09T21:34:47.529Z,79.01
2022-10-09T21:37:26.034Z,78.55
2022-10-09T21:39:48.900Z,78.66
2022-10-09T21:42:11.446Z,78.11
2022-10-09T21:44:34.952Z,76.95
2022-10-09T21:46:57.530Z,77.56
2022-10-09T21:49:25.800Z,76.74
2022-10-09T21:51:48.763Z,76.19
2022-10-09T21:54:11.320Z,76.78
2022-10-09T21:56:33.959Z,76.35
2022-10-09T21:58:57.224Z,76.12
2022-10-09T22:01:19.835Z,76.19
2022-10-09T22:03:42.585Z,75.16
2022-10-09T22:06:17.754Z,75.48
2022-10-09T22:08:42.483Z,75.24
2022-10-09T22:11:06.932Z,75.84
2022-10-09T22:13:29.405Z,74.48
2022-10-09T22:15:52.277Z,75.26
2022-10-09T22:18:15.168Z,75.07
2022-10-09T22:20:50.106Z,75.98
2022-10-09T22:23:14.159Z,75.05
2022-10-09T22:25:37.608Z,75.37
2022-10-09T22:28:00.170Z,75.59
2022-10-09T22:30:22.715Z,75.84
2022-10-09T22:32:45.215Z,75.59
2022-10-09T22:35:08.141Z,75.51
2022-10-09T22:37:30.817Z,75.99
2022-10-09T22:39:53.498Z,76.55
2022-10-09T22:42:16.184Z,76.52
2022-10-09T22:44:38.993Z,76.45
2022-10-09T22:47:01.576Z,76.18
2022-10-09T22:49:24.073Z,75.86
2022-10-09T22:51:46.615Z,75.98
2022-10-09T22:54:10.777Z,76.34
2022-10-09T22:56:36.537Z,76.44
2022-10-09T22:58:59.246Z,75.51
2022-10-09T23:01:34.902Z,75.63
2022-10-09T23:04:03.410Z,75.75
2022-10-09T23:06:26.235Z,75.19
2022-10-09T23:08:49.302Z,75.10
2022-10-09T23:11:13.636Z,74.56
2022-10-09T23:13:37.027Z,74.65
2022-10-09T23:16:00.959Z,75.03
2022-10-09T23:18:23.571Z,75.06
2022-10-09T23:20:46.262Z,74.97
2022-10-09T23:23:08.801Z,75.02
2022-10-09T23:25:31.441Z,74.95
2022-10-09T23:27:54.169Z,74.88
2022-10-09T23:30:16.692Z,75.31
2022-10-09T23:32:39.277Z,75.28
2022-10-09T23:35:01.800Z,75.79
2022-10-09T23:37:24.442Z,76.31
2022-10-09T23:39:47.062Z,76.64
2022-10-09T23:42:09.610Z,76.30
2022-10-09T23:44:32.034Z,76.41
2022-10-09T23:46:54.819Z,76.88
2022-10-09T23:49:18.479Z,76.93
2022-10-09T23:51:41.001Z,76.82
2022-10-09T23:54:03.662Z,76.92
2022-10-09T23:56:31.772Z,77.11
2022-10-09T23:58:55.711Z,76.77
